createdAt,value
2022-08-03T00:00:48.380Z,25.61
2022-08-03T00:01:48.679Z,25.57
2022-08-03T00:02:49.049Z,25.52
2022-08-03T00:03:49.271Z,25.57
2022-08-03T00:04:49.568Z,25.57
2022-08-03T00:06:03.742Z,25.61
2022-08-03T00:06:51.104Z,25.64
2022-08-03T00:07:50.390Z,25.65
2022-08-03T00:08:50.704Z,25.64
2022-08-03T00:09:51.033Z,25.65
2022-08-03T00:10:51.332Z,25.65
2022-08-03T00:11:51.606Z,25.68
2022-08-03T00:12:51.942Z,25.69
2022-08-03T00:13:52.253Z,25.68
2022-08-03T00:14:52.533Z,25.71
2022-08-03T00:15:52.766Z,25.69
2022-08-03T00:16:53.193Z,25.68
2022-08-03T00:17:54.126Z,25.68
2022-08-03T00:18:53.613Z,25.67
2022-08-03T00:19:53.883Z,25.62
2022-08-03T00:20:54.166Z,25.57
2022-08-03T00:21:54.508Z,25.54
2022-08-03T00:22:54.800Z,25.43
2022-08-03T00:23:54.994Z,25.35
2022-08-03T00:24:55.327Z,25.31
2022-08-03T00:25:55.580Z,25.28
2022-08-03T00:26:55.927Z,25.20
2022-08-03T00:27:56.212Z,25.16
2022-08-03T00:28:56.646Z,25.15
2022-08-03T00:29:57.442Z,25.13
2022-08-03T00:30:57.083Z,25.10
2022-08-03T00:32:00.235Z,25.05
2022-08-03T00:32:57.741Z,25.05
2022-08-03T00:33:59.074Z,25.07
2022-08-03T00:34:59.309Z,25.06
2022-08-03T00:35:58.615Z,25.09
2022-08-03T00:36:58.905Z,25.09
2022-08-03T00:37:59.148Z,25.07
2022-08-03T00:38:59.482Z,25.05
2022-08-03T00:39:59.961Z,25.02
2022-08-03T00:41:00.049Z,25.00
2022-08-03T00:42:00.355Z,24.94
2022-08-03T00:43:00.705Z,24.91
2022-08-03T00:44:00.987Z,24.87
2022-08-03T00:45:01.265Z,24.82
2022-08-03T00:46:01.557Z,24.76
2022-08-03T00:47:01.802Z,24.71
2022-08-03T00:48:02.101Z,24.67
2022-08-03T00:49:02.481Z,24.63
2022-08-03T00:50:02.688Z,24.59
2022-08-03T00:51:02.980Z,24.57
2022-08-03T00:52:07.810Z,24.57
2022-08-03T00:53:04.567Z,24.54
2022-08-03T00:54:03.921Z,24.50
2022-08-03T00:55:04.166Z,24.47
2022-08-03T00:56:04.425Z,24.42
2022-08-03T00:57:04.684Z,24.42
2022-08-03T00:58:04.983Z,24.44
2022-08-03T00:59:05.351Z,24.45
2022-08-03T01:00:05.569Z,24.49
2022-08-03T01:01:05.977Z,24.47
2022-08-03T01:02:06.186Z,24.44
2022-08-03T01:03:06.404Z,24.49
2022-08-03T01:04:06.680Z,24.50
2022-08-03T01:05:06.960Z,24.56
2022-08-03T01:06:07.284Z,24.56
2022-08-03T01:07:10.859Z,24.57
2022-08-03T01:08:07.836Z,24.59
2022-08-03T01:09:08.122Z,24.59
2022-08-03T01:10:08.399Z,24.61
2022-08-03T01:11:08.678Z,24.67
2022-08-03T01:12:08.978Z,24.68
2022-08-03T01:13:59.097Z,24.71
2022-08-03T01:14:18.600Z,24.76
2022-08-03T01:15:10.868Z,24.76
2022-08-03T01:16:10.096Z,24.82
2022-08-03T01:17:11.696Z,24.80
2022-08-03T01:18:10.694Z,24.80
2022-08-03T01:19:10.974Z,24.85
2022-08-03T01:20:11.187Z,24.79
2022-08-03T01:21:11.523Z,24.79
2022-08-03T01:22:11.856Z,24.75
2022-08-03T01:23:12.182Z,24.68
2022-08-03T01:24:12.393Z,24.64
2022-08-03T01:25:12.715Z,24.60
2022-08-03T01:26:12.976Z,24.54
2022-08-03T01:27:13.284Z,24.52
2022-08-03T01:28:13.633Z,24.42
2022-08-03T01:29:13.908Z,24.37
2022-08-03T01:30:14.163Z,24.32
2022-08-03T01:31:14.471Z,24.24
2022-08-03T01:32:59.921Z,24.22
2022-08-03T01:33:15.970Z,24.16
2022-08-03T01:34:15.239Z,24.13
2022-08-03T01:35:15.629Z,24.12
2022-08-03T01:36:15.802Z,24.10
2022-08-03T01:37:16.122Z,24.08
2022-08-03T01:38:16.430Z,24.07
2022-08-03T01:39:16.747Z,24.08
2022-08-03T01:40:16.995Z,24.08
2022-08-03T01:41:17.362Z,24.07
2022-08-03T01:42:18.060Z,24.02
2022-08-03T01:44:28.544Z,24.00
2022-08-03T01:44:29.602Z,23.95
2022-08-03T01:45:19.433Z,23.90
2022-08-03T01:46:18.727Z,23.85
2022-08-03T01:47:18.934Z,23.80
2022-08-03T01:48:19.260Z,23.75
2022-08-03T01:49:19.622Z,23.72
2022-08-03T01:50:19.947Z,23.71
2022-08-03T01:51:20.255Z,23.68
2022-08-03T01:52:20.632Z,23.65
2022-08-03T01:53:20.843Z,23.65
2022-08-03T01:54:21.129Z,23.64
2022-08-03T01:55:21.455Z,23.65
2022-08-03T01:56:21.785Z,23.67
2022-08-03T01:57:22.046Z,23.62
2022-08-03T01:58:22.394Z,23.65
2022-08-03T01:59:22.692Z,23.68
2022-08-03T02:00:23.008Z,23.67
2022-08-03T02:01:23.366Z,23.71
2022-08-03T02:02:33.411Z,23.71
2022-08-03T02:03:24.889Z,23.72
2022-08-03T02:04:24.158Z,23.77
2022-08-03T02:05:24.390Z,23.77
2022-08-03T02:07:00.729Z,23.80
2022-08-03T02:07:26.021Z,23.82
2022-08-03T02:08:25.345Z,23.82
2022-08-03T02:09:25.552Z,23.82
2022-08-03T02:10:34.484Z,23.82
2022-08-03T02:11:27.197Z,23.79
2022-08-03T02:12:26.475Z,23.79
2022-08-03T02:13:27.159Z,23.72
2022-08-03T02:14:27.071Z,23.71
2022-08-03T02:15:27.334Z,23.70
2022-08-03T02:16:27.667Z,23.70
2022-08-03T02:17:39.546Z,23.70
2022-08-03T02:18:29.216Z,23.72
2022-08-03T02:19:32.501Z,23.70
2022-08-03T02:20:29.881Z,23.72
2022-08-03T02:21:56.559Z,23.71
2022-08-03T02:22:30.363Z,23.70
2022-08-03T02:23:29.738Z,23.68
2022-08-03T02:24:30.102Z,23.67
2022-08-03T02:25:30.283Z,23.68
2022-08-03T02:26:30.648Z,23.67
2022-08-03T02:27:30.861Z,23.68
2022-08-03T02:28:31.177Z,23.64
2022-08-03T02:29:40.188Z,23.60
2022-08-03T02:30:32.711Z,23.62
2022-08-03T02:31:31.917Z,23.60
2022-08-03T02:32:32.212Z,23.62
2022-08-03T02:33:32.523Z,23.62
2022-08-03T02:34:32.756Z,23.57
2022-08-03T02:35:33.017Z,23.60
2022-08-03T02:36:33.274Z,23.65
2022-08-03T02:37:33.631Z,23.65
2022-08-03T02:38:33.971Z,23.62
2022-08-03T02:39:34.253Z,23.61
2022-08-03T02:40:34.536Z,23.64
2022-08-03T02:41:34.805Z,23.60
2022-08-03T02:42:35.164Z,23.61
2022-08-03T02:44:05.354Z,23.62
2022-08-03T02:44:36.812Z,23.57
2022-08-03T02:45:36.063Z,23.50
2022-08-03T02:46:36.335Z,23.50
2022-08-03T02:47:53.269Z,23.46
2022-08-03T02:48:38.765Z,23.46
2022-08-03T02:49:50.419Z,23.39
2022-08-03T02:50:38.519Z,23.34
2022-08-03T02:51:37.812Z,23.34
2022-08-03T02:52:38.180Z,23.32
2022-08-03T02:53:38.469Z,23.27
2022-08-03T02:54:39.680Z,23.32
2022-08-03T02:55:43.145Z,23.27
2022-08-03T02:56:40.340Z,23.29
2022-08-03T02:57:39.645Z,23.34
2022-08-03T02:58:39.940Z,23.27
2022-08-03T02:59:40.266Z,23.31
2022-08-03T03:00:40.589Z,23.32
2022-08-03T03:01:40.744Z,23.35
2022-08-03T03:02:43.912Z,23.40
2022-08-03T03:03:44.841Z,23.39
2022-08-03T03:04:55.025Z,23.40
2022-08-03T03:05:54.837Z,23.39
2022-08-03T03:06:43.269Z,23.42
2022-08-03T03:07:52.132Z,23.39
2022-08-03T03:08:43.910Z,23.35
2022-08-03T03:09:43.377Z,23.39
2022-08-03T03:10:43.482Z,23.40
2022-08-03T03:11:43.793Z,23.45
2022-08-03T03:12:44.142Z,23.42
2022-08-03T03:13:44.470Z,23.45
2022-08-03T03:14:44.720Z,23.45
2022-08-03T03:15:45.042Z,23.46
2022-08-03T03:16:45.325Z,23.47
2022-08-03T03:17:46.616Z,23.49
2022-08-03T03:18:45.948Z,23.52
2022-08-03T03:19:46.200Z,23.49
2022-08-03T03:20:46.511Z,23.47
2022-08-03T03:21:46.840Z,23.34
2022-08-03T03:22:47.136Z,23.35
2022-08-03T03:23:47.345Z,23.31
2022-08-03T03:24:47.688Z,23.35
2022-08-03T03:25:47.893Z,23.40
2022-08-03T03:26:48.241Z,23.39
2022-08-03T03:27:49.445Z,23.42
2022-08-03T03:28:49.032Z,23.45
2022-08-03T03:29:49.236Z,23.43
2022-08-03T03:30:52.558Z,23.47
2022-08-03T03:31:49.709Z,23.43
2022-08-03T03:32:52.233Z,23.43
2022-08-03T03:33:50.353Z,23.43
2022-08-03T03:34:50.622Z,23.43
2022-08-03T03:35:50.927Z,23.47
2022-08-03T03:36:51.201Z,23.49
2022-08-03T03:37:51.371Z,23.50
2022-08-03T03:38:51.735Z,23.47
2022-08-03T03:39:52.055Z,23.43
2022-08-03T03:40:52.298Z,23.42
2022-08-03T03:41:52.509Z,23.35
2022-08-03T03:42:52.751Z,23.31
2022-08-03T03:43:53.107Z,23.20
2022-08-03T03:44:53.330Z,23.17
2022-08-03T03:45:53.649Z,23.08
2022-08-03T03:46:54.005Z,22.99
2022-08-03T03:47:54.305Z,22.96
2022-08-03T03:48:54.501Z,22.87
2022-08-03T03:49:54.752Z,22.86
2022-08-03T03:50:54.963Z,22.86
2022-08-03T03:51:55.405Z,22.86
2022-08-03T03:52:55.571Z,22.80
2022-08-03T03:53:55.903Z,22.78
2022-08-03T03:55:00.633Z,22.80
2022-08-03T03:55:59.570Z,22.82
2022-08-03T03:56:57.849Z,22.83
2022-08-03T03:57:57.143Z,22.84
2022-08-03T03:58:57.347Z,22.87
2022-08-03T03:59:57.736Z,22.87
2022-08-03T04:00:58.061Z,22.87
2022-08-03T04:01:59.219Z,22.90
2022-08-03T04:02:58.529Z,22.93
2022-08-03T04:03:58.886Z,22.93
2022-08-03T04:04:59.222Z,22.96
2022-08-03T04:05:59.451Z,22.93
2022-08-03T04:06:59.719Z,22.93
2022-08-03T04:07:59.974Z,22.94
2022-08-03T04:09:00.256Z,22.97
2022-08-03T04:10:07.864Z,22.99
2022-08-03T04:11:01.872Z,22.93
2022-08-03T04:12:01.192Z,22.99
2022-08-03T04:13:01.406Z,22.97
2022-08-03T04:14:01.772Z,22.96
2022-08-03T04:15:01.955Z,22.96
2022-08-03T04:16:02.208Z,22.99
2022-08-03T04:17:02.937Z,23.01
2022-08-03T04:18:02.770Z,22.99
2022-08-03T04:19:03.010Z,23.01
2022-08-03T04:20:03.356Z,23.04
2022-08-03T04:21:03.618Z,23.05
2022-08-03T04:22:03.962Z,23.07
2022-08-03T04:23:04.149Z,23.04
2022-08-03T04:24:05.409Z,23.07
2022-08-03T04:25:04.588Z,23.11
2022-08-03T04:26:04.967Z,23.05
2022-08-03T04:27:05.236Z,23.08
2022-08-03T04:28:07.726Z,23.09
2022-08-03T04:29:06.771Z,23.12
2022-08-03T04:30:06.043Z,23.12
2022-08-03T04:31:06.264Z,23.15
2022-08-03T04:32:06.544Z,23.19
2022-08-03T04:33:06.883Z,23.22
2022-08-03T04:34:07.108Z,23.15
2022-08-03T04:35:07.318Z,23.15
2022-08-03T04:36:07.580Z,23.14
2022-08-03T04:37:07.855Z,23.11
2022-08-03T04:38:08.260Z,23.09
2022-08-03T04:39:08.485Z,23.05
2022-08-03T04:40:08.744Z,23.01
2022-08-03T04:41:09.033Z,22.99
2022-08-03T04:42:09.376Z,23.01
2022-08-03T04:43:09.611Z,22.96
2022-08-03T04:44:09.862Z,22.90
2022-08-03T04:45:10.108Z,22.94
2022-08-03T04:46:10.376Z,22.89
2022-08-03T04:47:10.646Z,22.90
2022-08-03T04:48:10.873Z,22.89
2022-08-03T04:49:11.266Z,22.89
2022-08-03T04:50:13.579Z,22.90
2022-08-03T04:51:11.731Z,22.86
2022-08-03T04:52:11.977Z,22.87
2022-08-03T04:53:12.240Z,22.86
2022-08-03T04:54:12.630Z,22.86
2022-08-03T04:55:12.776Z,22.87
2022-08-03T04:56:13.134Z,22.83
2022-08-03T04:57:22.174Z,22.90
2022-08-03T04:58:14.694Z,22.92
2022-08-03T04:59:13.827Z,22.94
2022-08-03T05:00:14.194Z,22.96
2022-08-03T05:01:14.483Z,22.97
2022-08-03T05:02:15.012Z,22.99
2022-08-03T05:03:20.226Z,23.02
2022-08-03T05:04:16.789Z,23.05
2022-08-03T05:05:15.583Z,23.04
2022-08-03T05:06:16.205Z,23.08
2022-08-03T05:07:16.079Z,23.11
2022-08-03T05:08:16.331Z,23.14
2022-08-03T05:09:48.933Z,23.14
2022-08-03T05:10:17.898Z,23.15
2022-08-03T05:11:17.135Z,23.20
2022-08-03T05:12:17.890Z,23.14
2022-08-03T05:13:17.796Z,23.11
2022-08-03T05:14:18.061Z,23.15
2022-08-03T05:15:19.301Z,23.11
2022-08-03T05:16:18.540Z,23.08
2022-08-03T05:17:18.772Z,23.05
2022-08-03T05:18:19.029Z,23.04
2022-08-03T05:19:19.274Z,23.07
2022-08-03T05:20:19.487Z,23.04
2022-08-03T05:21:19.827Z,23.04
2022-08-03T05:22:20.343Z,23.07
2022-08-03T05:23:20.426Z,23.02
2022-08-03T05:24:20.698Z,23.01
2022-08-03T05:25:23.354Z,23.04
2022-08-03T05:26:22.226Z,23.05
2022-08-03T05:27:21.496Z,23.09
2022-08-03T05:28:21.734Z,23.15
2022-08-03T05:29:21.964Z,23.20
2022-08-03T05:30:31.079Z,23.22
2022-08-03T05:31:23.690Z,23.31
2022-08-03T05:32:22.831Z,23.32
2022-08-03T05:33:23.069Z,23.38
2022-08-03T05:34:23.297Z,23.38
2022-08-03T05:35:57.217Z,23.43
2022-08-03T05:36:24.765Z,23.45
2022-08-03T05:37:24.013Z,23.45
2022-08-03T05:38:28.460Z,23.49
2022-08-03T05:39:24.553Z,23.50
2022-08-03T05:40:24.786Z,23.52
2022-08-03T05:41:36.920Z,23.55
2022-08-03T05:42:26.320Z,23.61
2022-08-03T05:43:25.731Z,23.61
2022-08-03T05:44:25.963Z,23.64
2022-08-03T05:45:28.417Z,23.70
2022-08-03T05:46:26.481Z,23.68
2022-08-03T05:47:26.861Z,23.71
2022-08-03T05:48:27.109Z,23.75
2022-08-03T05:49:27.428Z,23.79
2022-08-03T05:50:27.728Z,23.85
2022-08-03T05:51:28.047Z,23.83
2022-08-03T05:52:28.222Z,23.90
2022-08-03T05:53:28.517Z,23.92
2022-08-03T05:54:56.326Z,23.94
2022-08-03T05:55:29.957Z,23.95
2022-08-03T05:56:29.204Z,24.00
2022-08-03T05:57:29.551Z,24.00
2022-08-03T05:58:29.864Z,24.01
2022-08-03T05:59:38.079Z,24.00
2022-08-03T06:00:31.377Z,24.04
2022-08-03T06:01:30.710Z,24.12
2022-08-03T06:02:30.893Z,24.14
2022-08-03T06:03:31.222Z,24.17
2022-08-03T06:04:31.592Z,24.16
2022-08-03T06:05:31.865Z,24.19
2022-08-03T06:06:32.503Z,24.14
2022-08-03T06:07:39.314Z,24.13
2022-08-03T06:08:32.682Z,24.13
2022-08-03T06:10:37.650Z,24.19
2022-08-03T06:10:37.764Z,24.19
2022-08-03T06:11:33.453Z,24.23
2022-08-03T06:12:33.782Z,24.24
2022-08-03T06:13:34.017Z,24.26
2022-08-03T06:14:34.337Z,24.26
2022-08-03T06:15:34.541Z,24.27
2022-08-03T06:16:34.818Z,24.31
2022-08-03T06:17:37.677Z,24.32
2022-08-03T06:18:36.288Z,24.27
2022-08-03T06:19:35.609Z,24.23
2022-08-03T06:20:35.964Z,24.27
2022-08-03T06:21:36.138Z,24.32
2022-08-03T06:22:36.521Z,24.32
2022-08-03T06:23:55.037Z,24.37
2022-08-03T06:24:38.079Z,24.38
2022-08-03T06:25:38.395Z,24.44
2022-08-03T06:26:37.685Z,24.47
2022-08-03T06:27:37.953Z,24.56
2022-08-03T06:28:53.099Z,24.52
2022-08-03T06:29:39.430Z,24.53
2022-08-03T06:30:38.691Z,24.54
2022-08-03T06:31:38.939Z,24.57
2022-08-03T06:32:39.286Z,24.60
2022-08-03T06:33:48.552Z,24.68
2022-08-03T06:34:40.787Z,24.68
2022-08-03T06:35:40.022Z,24.76
2022-08-03T06:36:40.301Z,24.77
2022-08-03T06:37:40.575Z,24.80
2022-08-03T06:38:40.805Z,24.82
2022-08-03T06:39:41.024Z,24.85
2022-08-03T06:40:41.377Z,24.82
2022-08-03T06:41:44.797Z,24.87
2022-08-03T06:42:41.879Z,24.87
2022-08-03T06:44:03.065Z,24.87
2022-08-03T06:44:43.449Z,24.83
2022-08-03T06:45:42.672Z,24.85
2022-08-03T06:46:43.824Z,24.87
2022-08-03T06:47:43.048Z,24.87
2022-08-03T06:48:43.443Z,24.88
2022-08-03T06:49:43.734Z,24.94
2022-08-03T06:50:44.939Z,25.00
2022-08-03T06:52:05.602Z,25.06
2022-08-03T06:52:45.574Z,25.12
2022-08-03T06:53:44.743Z,25.07
2022-08-03T06:54:44.988Z,25.15
2022-08-03T06:55:45.222Z,25.13
2022-08-03T06:56:45.459Z,25.17
2022-08-03T06:57:45.733Z,25.22
2022-08-03T06:58:46.033Z,25.27
2022-08-03T07:00:09.958Z,25.31
2022-08-03T07:00:47.521Z,25.38
2022-08-03T07:01:47.755Z,25.39
2022-08-03T07:02:47.055Z,25.47
2022-08-03T07:03:52.522Z,25.52
2022-08-03T07:04:48.504Z,25.57
2022-08-03T07:05:47.777Z,25.65
2022-08-03T07:06:48.028Z,25.68
2022-08-03T07:07:48.291Z,25.72
2022-08-03T07:08:51.815Z,25.72
2022-08-03T07:09:56.861Z,25.77
2022-08-03T07:10:50.064Z,25.87
2022-08-03T07:11:49.285Z,25.90
2022-08-03T07:12:55.752Z,25.99
2022-08-03T07:13:50.777Z,26.01
2022-08-03T07:14:50.020Z,26.02
2022-08-03T07:15:55.240Z,26.06
2022-08-03T07:16:51.993Z,26.08
2022-08-03T07:17:50.836Z,26.09
2022-08-03T07:18:51.119Z,26.06
2022-08-03T07:19:51.392Z,26.17
2022-08-03T07:20:51.644Z,26.20
2022-08-03T07:21:51.886Z,26.25
2022-08-03T07:22:52.311Z,26.27
2022-08-03T07:23:52.507Z,26.24
2022-08-03T07:24:52.783Z,26.24
2022-08-03T07:25:53.035Z,26.31
2022-08-03T07:26:53.315Z,26.27
2022-08-03T07:27:53.543Z,26.29
2022-08-03T07:28:53.933Z,26.31
2022-08-03T07:29:54.159Z,26.39
2022-08-03T07:30:54.403Z,26.42
2022-08-03T07:31:54.641Z,26.46
2022-08-03T07:32:54.922Z,26.50
2022-08-03T07:33:55.205Z,26.57
2022-08-03T07:35:00.133Z,26.57
2022-08-03T07:35:56.725Z,26.62
2022-08-03T07:36:56.000Z,26.67
2022-08-03T07:37:56.242Z,26.72
2022-08-03T07:38:56.479Z,26.72
2022-08-03T07:39:56.783Z,26.76
2022-08-03T07:40:57.096Z,26.79
2022-08-03T07:41:57.338Z,26.77
2022-08-03T07:42:57.616Z,26.83
2022-08-03T07:43:57.820Z,26.87
2022-08-03T07:44:58.262Z,26.91
2022-08-03T07:45:58.510Z,26.99
2022-08-03T07:46:58.734Z,27.06
2022-08-03T07:47:59.071Z,27.16
2022-08-03T07:48:59.365Z,27.23
2022-08-03T07:49:59.622Z,27.23
2022-08-03T07:50:59.905Z,27.28
2022-08-03T07:52:00.161Z,27.38
2022-08-03T07:53:00.390Z,27.46
2022-08-03T07:54:00.643Z,27.48
2022-08-03T07:55:01.847Z,27.53
2022-08-03T07:56:01.248Z,27.62
2022-08-03T07:57:01.510Z,27.67
2022-08-03T07:58:01.818Z,27.70
2022-08-03T07:59:02.044Z,27.70
2022-08-03T08:00:02.920Z,27.59
2022-08-03T08:01:02.598Z,27.62
2022-08-03T08:02:02.803Z,27.64
2022-08-03T08:03:03.525Z,27.71
2022-08-03T08:04:03.445Z,27.79
2022-08-03T08:05:05.737Z,27.86
2022-08-03T08:06:04.011Z,27.99
2022-08-03T08:07:04.337Z,28.10
2022-08-03T08:08:04.624Z,28.22
2022-08-03T08:09:04.870Z,28.32
2022-08-03T08:10:05.110Z,28.54
2022-08-03T08:11:05.374Z,28.72
2022-08-03T08:12:05.596Z,28.87
2022-08-03T08:13:06.997Z,29.00
2022-08-03T08:14:06.150Z,29.26
2022-08-03T08:15:06.467Z,29.52
2022-08-03T08:16:06.679Z,29.72
2022-08-03T08:17:07.504Z,29.94
2022-08-03T08:18:07.131Z,30.15
2022-08-03T08:19:07.493Z,30.67
2022-08-03T08:20:07.754Z,31.18
2022-08-03T08:21:08.764Z,31.62
2022-08-03T08:22:08.229Z,32.02
2022-08-03T08:23:13.910Z,32.33
2022-08-03T08:24:13.358Z,32.61
2022-08-03T08:25:09.984Z,32.92
2022-08-03T08:26:09.279Z,32.98
2022-08-03T08:27:09.485Z,33.10
2022-08-03T08:28:29.926Z,33.22
2022-08-03T08:29:10.998Z,33.08
2022-08-03T08:30:12.304Z,33.14
2022-08-03T08:31:10.550Z,33.61
2022-08-03T08:32:10.782Z,33.98
2022-08-03T08:33:22.335Z,34.32
2022-08-03T08:34:12.278Z,34.58
2022-08-03T08:35:11.684Z,34.70
2022-08-03T08:36:15.178Z,34.92
2022-08-03T08:37:12.214Z,34.99
2022-08-03T08:38:12.558Z,35.18
2022-08-03T08:39:12.765Z,35.30
2022-08-03T08:40:13.070Z,35.55
2022-08-03T08:41:13.337Z,35.82
2022-08-03T08:42:13.591Z,35.91
2022-08-03T08:43:13.842Z,35.99
2022-08-03T08:44:14.106Z,36.27
2022-08-03T08:45:14.384Z,36.46
2022-08-03T08:46:23.154Z,36.46
2022-08-03T08:47:15.959Z,36.31
2022-08-03T08:48:15.291Z,36.64
2022-08-03T08:49:15.747Z,36.80
2022-08-03T08:50:27.091Z,36.72
2022-08-03T08:51:17.242Z,37.01
2022-08-03T08:52:29.619Z,37.01
2022-08-03T08:53:19.832Z,37.33
2022-08-03T08:54:18.095Z,37.67
2022-08-03T08:55:17.245Z,37.98
2022-08-03T08:56:17.467Z,37.41
2022-08-03T08:57:40.709Z,37.19
2022-08-03T08:58:20.868Z,37.42
2022-08-03T08:59:18.689Z,37.67
2022-08-03T09:00:18.747Z,37.61
2022-08-03T09:01:19.058Z,37.74
2022-08-03T09:02:19.767Z,37.74
2022-08-03T09:03:28.933Z,37.46
2022-08-03T09:04:21.343Z,37.85
2022-08-03T09:05:31.476Z,37.86
2022-08-03T09:06:21.366Z,37.88
2022-08-03T09:07:20.933Z,37.83
2022-08-03T09:08:20.932Z,37.89
2022-08-03T09:10:05.293Z,38.20
2022-08-03T09:10:22.539Z,38.41
2022-08-03T09:11:22.200Z,38.01
2022-08-03T09:12:41.208Z,38.03
2022-08-03T09:13:23.289Z,37.93
2022-08-03T09:14:35.219Z,38.22
2022-08-03T09:15:23.789Z,37.95
2022-08-03T09:16:23.049Z,38.10
2022-08-03T09:17:23.335Z,38.45
2022-08-03T09:18:23.602Z,38.86
2022-08-03T09:19:24.910Z,38.80
2022-08-03T09:20:24.177Z,38.61
2022-08-03T09:21:33.190Z,38.51
2022-08-03T09:22:25.644Z,38.85
2022-08-03T09:23:59.798Z,39.03
2022-08-03T09:24:40.798Z,39.25
2022-08-03T09:25:26.614Z,39.55
2022-08-03T09:26:26.791Z,39.74
2022-08-03T09:27:26.244Z,39.93
2022-08-03T09:28:53.883Z,39.20
2022-08-03T09:29:27.792Z,39.18
2022-08-03T09:30:34.087Z,38.80
2022-08-03T09:31:28.355Z,38.99
2022-08-03T09:32:27.707Z,39.24
2022-08-03T09:33:27.895Z,39.54
2022-08-03T09:34:29.173Z,39.62
2022-08-03T09:35:51.696Z,39.39
2022-08-03T09:36:29.658Z,39.10
2022-08-03T09:38:14.070Z,39.40
2022-08-03T09:38:30.158Z,39.28
2022-08-03T09:39:40.770Z,39.43
2022-08-03T09:40:30.658Z,39.69
2022-08-03T09:41:29.906Z,39.99
2022-08-03T09:42:30.179Z,40.00
2022-08-03T09:43:31.572Z,39.88
2022-08-03T09:44:30.762Z,39.74
2022-08-03T09:45:31.012Z,39.92
2022-08-03T09:46:31.276Z,40.29
2022-08-03T09:47:31.565Z,40.30
2022-08-03T09:48:31.761Z,40.46
2022-08-03T09:49:32.289Z,40.74
2022-08-03T09:50:32.376Z,40.98
2022-08-03T09:52:32.153Z,41.24
2022-08-03T09:52:50.127Z,41.21
2022-08-03T09:53:34.219Z,41.33
2022-08-03T09:54:33.490Z,41.63
2022-08-03T09:56:34.727Z,41.78
2022-08-03T09:56:37.118Z,42.04
2022-08-03T09:57:34.390Z,41.82
2022-08-03T09:58:34.630Z,41.73
2022-08-03T09:59:34.922Z,41.85
2022-08-03T10:00:35.155Z,41.93
2022-08-03T10:01:35.598Z,41.94
2022-08-03T10:02:35.728Z,42.05
2022-08-03T10:03:35.969Z,42.31
2022-08-03T10:04:37.215Z,42.25
2022-08-03T10:05:36.494Z,42.32
2022-08-03T10:06:36.776Z,41.82
2022-08-03T10:07:37.961Z,41.41
2022-08-03T10:08:38.280Z,41.13
2022-08-03T10:09:37.541Z,40.79
2022-08-03T10:10:37.757Z,40.86
2022-08-03T10:11:41.678Z,40.59
2022-08-03T10:12:38.333Z,40.61
2022-08-03T10:13:38.563Z,41.02
2022-08-03T10:14:38.907Z,41.22
2022-08-03T10:16:22.389Z,40.98
2022-08-03T10:16:40.478Z,40.17
2022-08-03T10:17:40.399Z,40.52
2022-08-03T10:18:39.875Z,40.71
2022-08-03T10:19:40.250Z,41.22
2022-08-03T10:20:40.610Z,41.39
2022-08-03T10:21:40.829Z,41.37
2022-08-03T10:22:41.100Z,41.71
2022-08-03T10:23:41.402Z,42.00
2022-08-03T10:24:41.664Z,41.98
2022-08-03T10:25:41.923Z,42.08
2022-08-03T10:26:49.987Z,42.28
2022-08-03T10:27:43.482Z,42.53
2022-08-03T10:28:45.276Z,42.85
2022-08-03T10:29:42.975Z,43.22
2022-08-03T10:30:43.251Z,43.16
2022-08-03T10:31:57.874Z,43.11
2022-08-03T10:32:44.766Z,42.53
2022-08-03T10:33:51.744Z,42.32
2022-08-03T10:34:45.292Z,42.41
2022-08-03T10:35:44.579Z,42.73
2022-08-03T10:36:44.895Z,42.69
2022-08-03T10:37:56.663Z,42.37
2022-08-03T10:38:46.398Z,42.22
2022-08-03T10:39:45.757Z,42.04
2022-08-03T10:40:49.607Z,41.49
2022-08-03T10:41:47.237Z,41.41
2022-08-03T10:42:50.200Z,41.66
2022-08-03T10:43:47.008Z,41.66
2022-08-03T10:44:47.432Z,41.49
2022-08-03T10:45:47.378Z,41.20
2022-08-03T10:46:47.618Z,40.59
2022-08-03T10:47:47.927Z,40.66
2022-08-03T10:48:48.183Z,40.15
2022-08-03T10:49:48.479Z,40.42
2022-08-03T10:50:48.701Z,40.38
2022-08-03T10:51:48.962Z,40.59
2022-08-03T10:52:50.206Z,41.06
2022-08-03T10:53:55.197Z,41.46
2022-08-03T10:54:50.771Z,41.66
2022-08-03T10:55:50.007Z,41.85
2022-08-03T10:56:50.513Z,41.37
2022-08-03T10:57:52.472Z,41.40
2022-08-03T10:58:57.545Z,41.39
2022-08-03T10:59:52.158Z,41.31
2022-08-03T11:00:51.513Z,41.15
2022-08-03T11:01:58.075Z,41.29
2022-08-03T11:02:52.946Z,41.52
2022-08-03T11:03:52.239Z,41.94
2022-08-03T11:04:52.502Z,41.94
2022-08-03T11:05:52.744Z,41.56
2022-08-03T11:06:52.955Z,41.62
2022-08-03T11:07:54.574Z,41.82
2022-08-03T11:08:53.578Z,41.71
2022-08-03T11:09:53.813Z,42.05
2022-08-03T11:10:54.072Z,42.42
2022-08-03T11:11:54.320Z,42.20
2022-08-03T11:12:54.556Z,42.09
2022-08-03T11:13:54.899Z,41.65
2022-08-03T11:14:55.157Z,40.96
2022-08-03T11:15:59.729Z,39.36
2022-08-03T11:16:56.706Z,38.90
2022-08-03T11:17:56.317Z,39.54
2022-08-03T11:18:56.218Z,40.05
2022-08-03T11:19:58.159Z,40.46
2022-08-03T11:20:56.903Z,40.91
2022-08-03T11:21:57.176Z,41.05
2022-08-03T11:22:57.441Z,40.69
2022-08-03T11:24:03.240Z,40.59
2022-08-03T11:24:58.990Z,40.96
2022-08-03T11:25:58.304Z,41.09
2022-08-03T11:27:00.913Z,41.27
2022-08-03T11:27:58.746Z,41.74
2022-08-03T11:28:58.987Z,41.39
2022-08-03T11:29:59.257Z,41.40
2022-08-03T11:30:59.557Z,41.46
2022-08-03T11:31:59.782Z,41.44
2022-08-03T11:33:00.001Z,41.44
2022-08-03T11:34:00.274Z,41.43
2022-08-03T11:35:00.536Z,40.93
2022-08-03T11:36:00.928Z,40.71
2022-08-03T11:37:01.173Z,40.62
2022-08-03T11:38:04.861Z,40.23
2022-08-03T11:39:01.786Z,39.98
2022-08-03T11:40:02.819Z,39.77
2022-08-03T11:41:02.294Z,40.04
2022-08-03T11:42:02.568Z,39.92
2022-08-03T11:43:02.842Z,40.08
2022-08-03T11:44:03.182Z,40.59
2022-08-03T11:45:03.586Z,40.69
2022-08-03T11:46:03.661Z,40.05
2022-08-03T11:47:03.978Z,38.96
2022-08-03T11:48:04.203Z,38.20
2022-08-03T11:49:09.506Z,37.93
2022-08-03T11:50:05.768Z,37.50
2022-08-03T11:51:04.916Z,37.09
2022-08-03T11:52:05.339Z,37.07
2022-08-03T11:53:05.570Z,37.10
2022-08-03T11:54:05.904Z,36.98
2022-08-03T11:55:06.071Z,36.60
2022-08-03T11:56:06.423Z,36.56
2022-08-03T11:57:07.708Z,36.65
2022-08-03T11:59:03.380Z,36.67
2022-08-03T11:59:19.866Z,36.60
2022-08-03T12:00:08.603Z,36.64
2022-08-03T12:01:07.836Z,36.65
2022-08-03T12:02:08.076Z,36.67
2022-08-03T12:03:08.410Z,36.35
2022-08-03T12:04:08.596Z,36.15
2022-08-03T12:05:08.958Z,36.12
2022-08-03T12:06:09.236Z,36.21
2022-08-03T12:07:09.485Z,36.26
2022-08-03T12:08:09.717Z,36.30
2022-08-03T12:09:10.066Z,36.12
2022-08-03T12:10:11.285Z,36.29
2022-08-03T12:11:10.535Z,36.43
2022-08-03T12:12:10.838Z,36.57
2022-08-03T12:14:35.602Z,36.60
2022-08-03T12:14:49.465Z,36.43
2022-08-03T12:15:12.629Z,36.29
2022-08-03T12:16:11.899Z,36.01
2022-08-03T12:17:12.223Z,36.00
2022-08-03T12:18:12.431Z,35.86
2022-08-03T12:19:12.700Z,35.73
2022-08-03T12:20:12.955Z,35.52
2022-08-03T12:21:13.187Z,35.21
2022-08-03T12:22:13.440Z,35.14
2022-08-03T12:23:13.652Z,35.15
2022-08-03T12:24:14.062Z,35.17
2022-08-03T12:25:14.254Z,35.20
2022-08-03T12:26:14.577Z,35.25
2022-08-03T12:27:15.012Z,35.23
2022-08-03T12:28:36.331Z,35.13
2022-08-03T12:29:16.394Z,35.13
2022-08-03T12:30:15.760Z,35.15
2022-08-03T12:31:16.455Z,35.03
2022-08-03T12:32:16.291Z,34.84
2022-08-03T12:33:16.609Z,34.76
2022-08-03T12:34:16.778Z,34.64
2022-08-03T12:35:17.032Z,34.70
2022-08-03T12:36:17.264Z,34.58
2022-08-03T12:37:21.822Z,34.41
2022-08-03T12:38:18.760Z,34.35
2022-08-03T12:39:18.037Z,34.42
2022-08-03T12:40:22.156Z,34.38
2022-08-03T12:41:19.569Z,34.42
2022-08-03T12:42:18.934Z,34.53
2022-08-03T12:43:19.140Z,34.66
2022-08-03T12:44:19.565Z,34.76
2022-08-03T12:45:19.743Z,34.86
2022-08-03T12:46:20.007Z,34.96
2022-08-03T12:47:20.512Z,34.99
2022-08-03T12:48:20.487Z,34.98
2022-08-03T12:49:20.825Z,34.94
2022-08-03T12:50:21.098Z,34.96
2022-08-03T12:51:21.818Z,34.89
2022-08-03T12:52:21.607Z,34.86
2022-08-03T12:53:21.831Z,34.69
2022-08-03T12:54:24.503Z,34.70
2022-08-03T12:55:22.368Z,34.60
2022-08-03T12:56:22.609Z,34.51